createdAt,value
2022-08-18T00:03:55.673Z,17.5
2022-08-18T00:08:54.369Z,17.6
2022-08-18T00:13:57.926Z,17.6
2022-08-18T00:19:07.094Z,17.6
2022-08-18T00:24:06.962Z,17.5
2022-08-18T00:29:11.481Z,17.5
2022-08-18T00:34:15.038Z,17.4
2022-08-18T00:39:19.582Z,17.4
2022-08-18T00:44:24.087Z,17.3
2022-08-18T00:49:27.650Z,17.2
2022-08-18T00:54:32.161Z,17.3
2022-08-18T00:59:36.728Z,17.2
2022-08-18T01:04:42.097Z,17.2
2022-08-18T01:09:44.790Z,17.2
2022-08-18T01:14:49.318Z,17.2
2022-08-18T01:19:52.877Z,17.2
2022-08-18T01:24:57.406Z,17.2
2022-08-18T01:30:01.935Z,17.1
2022-08-18T01:35:06.475Z,17
2022-08-18T01:41:11.080Z,17.1
2022-08-18T01:45:14.563Z,16.9
2022-08-18T01:50:19.127Z,17.1
2022-08-18T01:55:22.671Z,17.2
2022-08-18T02:00:27.188Z,17.3
2022-08-18T02:05:31.711Z,17.4
2022-08-18T02:10:35.299Z,17.3
2022-08-18T02:15:41.496Z,16.7
2022-08-18T02:20:44.839Z,16.7
2022-08-18T02:25:47.855Z,16.6
2022-08-18T02:30:52.405Z,16.7
2022-08-18T02:35:56.950Z,16.7
2022-08-18T02:41:01.451Z,16.6
2022-08-18T02:46:05.019Z,16.8
2022-08-18T02:51:09.561Z,16.7
2022-08-18T02:56:14.107Z,16.8
2022-08-18T03:01:17.695Z,16.7
2022-08-18T03:06:22.167Z,16.8
2022-08-18T03:11:26.729Z,16.7
2022-08-18T03:16:30.262Z,16.7
2022-08-18T03:21:34.774Z,16.8
2022-08-18T03:26:39.289Z,16.8
2022-08-18T03:31:42.887Z,16.8
2022-08-18T03:36:47.423Z,16.8
2022-08-18T03:41:58.480Z,16.8
2022-08-18T03:46:56.467Z,16.8
2022-08-18T03:52:00.007Z,17
2022-08-18T03:57:03.538Z,17.1
2022-08-18T04:02:08.113Z,17
2022-08-18T04:07:12.666Z,16.8
2022-08-18T04:12:17.152Z,16.8
2022-08-18T04:17:20.716Z,16.8
2022-08-18T04:22:25.306Z,16.7
2022-08-18T04:27:29.792Z,16.6
2022-08-18T04:32:33.326Z,16.5
2022-08-18T04:37:38.134Z,16.5
2022-08-18T04:42:43.093Z,16.7
2022-08-18T04:47:46.004Z,16.8
2022-08-18T04:52:50.481Z,16.9
2022-08-18T04:57:55.020Z,17
2022-08-18T05:02:58.563Z,17.1
2022-08-18T05:08:03.082Z,17.3
2022-08-18T05:13:07.633Z,17.3
2022-08-18T05:18:11.736Z,17.1
2022-08-18T05:23:15.723Z,17.3
2022-08-18T05:28:20.255Z,17.3
2022-08-18T05:33:24.781Z,17.3
2022-08-18T05:38:28.338Z,17.3
2022-08-18T05:43:32.860Z,17.3
2022-08-18T05:48:42.745Z,17.4
2022-08-18T05:53:40.941Z,17.5
2022-08-18T05:58:45.472Z,17.5
2022-08-18T06:03:50.023Z,17.5
2022-08-18T06:08:53.573Z,17.4
2022-08-18T06:13:59.445Z,17.4
2022-08-18T06:19:02.667Z,17.5
2022-08-18T06:24:06.223Z,17.5
2022-08-18T06:29:10.716Z,17.6
2022-08-18T06:34:15.273Z,17.5
2022-08-18T06:39:19.790Z,17.7
2022-08-18T06:44:23.348Z,17.6
2022-08-18T06:49:27.872Z,17.7
2022-08-18T06:54:32.423Z,17.8
2022-08-18T06:59:35.963Z,17.8
2022-08-18T07:04:40.478Z,17.8
2022-08-18T07:09:45.026Z,17.8
2022-08-18T07:14:48.587Z,17.7
2022-08-18T07:19:53.084Z,17.9
2022-08-18T07:25:00.576Z,17.8
2022-08-18T07:30:01.178Z,17.9
2022-08-18T07:35:05.717Z,17.9
2022-08-18T07:40:10.422Z,18
2022-08-18T07:45:14.797Z,18
2022-08-18T07:50:36.409Z,18.1
2022-08-18T07:55:22.892Z,18.1
2022-08-18T08:00:57.098Z,18.2
2022-08-18T08:05:30.964Z,18
2022-08-18T08:10:34.504Z,18.3
2022-08-18T08:15:39.077Z,18.4
2022-08-18T08:20:43.607Z,18.3
2022-08-18T08:25:48.099Z,18.3
2022-08-18T08:30:51.635Z,18
2022-08-18T08:35:56.211Z,18.2
2022-08-18T08:41:00.740Z,18.4
2022-08-18T08:46:04.278Z,18.1
2022-08-18T08:51:08.809Z,18.4
2022-08-18T08:56:13.358Z,18.5
2022-08-18T09:01:16.964Z,18.1
2022-08-18T09:06:21.437Z,18.4
2022-08-18T09:11:25.987Z,18.2
2022-08-18T09:16:29.492Z,18.4
2022-08-18T09:21:34.045Z,18.5
2022-08-18T09:26:39.342Z,18.6
2022-08-18T09:31:43.115Z,18.4
2022-08-18T09:36:46.669Z,18.6
2022-08-18T09:41:51.185Z,18.4
2022-08-18T09:46:55.930Z,18.3
2022-08-18T09:51:59.277Z,18.3
2022-08-18T09:57:03.832Z,18.4
2022-08-18T10:07:11.882Z,18.3
2022-08-18T10:12:16.426Z,18.3
2022-08-18T10:17:23.917Z,18.4
2022-08-18T10:22:35.396Z,18.2
2022-08-18T10:27:29.044Z,18.1
2022-08-18T10:32:33.570Z,18.3
2022-08-18T10:37:38.141Z,18.7
2022-08-18T10:42:41.668Z,19.2
2022-08-18T10:47:47.286Z,19
2022-08-18T10:57:54.302Z,18.8
2022-08-18T11:03:21.263Z,18.9
2022-08-18T11:08:03.364Z,19.3
2022-08-18T11:13:09.671Z,19.1
2022-08-18T11:18:11.421Z,19
2022-08-18T11:23:16.003Z,18.6
2022-08-18T11:28:19.508Z,19
2022-08-18T11:38:29.577Z,18.8
2022-08-18T11:43:41.006Z,19.2
2022-08-18T11:48:49.670Z,19
2022-08-18T11:53:41.185Z,18.8
2022-08-18T11:58:45.753Z,19.5
2022-08-18T12:03:49.314Z,20.3
2022-08-18T12:08:58.906Z,20.2
2022-08-18T12:13:58.379Z,19.6
2022-08-18T12:19:03.111Z,18.5
2022-08-18T12:24:06.455Z,18.4
2022-08-18T12:29:11.029Z,18.8
2022-08-18T12:34:14.853Z,19.7
2022-08-18T12:39:19.118Z,19.9
2022-08-18T12:44:22.660Z,18.8
2022-08-18T12:49:27.156Z,19.6
2022-08-18T12:54:31.704Z,19.9
2022-08-18T13:04:39.968Z,19.4
2022-08-18T13:09:53.080Z,19.1
2022-08-18T13:14:47.908Z,18.9
2022-08-18T13:19:52.475Z,20
2022-08-18T13:24:57.012Z,19.3
2022-08-18T13:30:01.513Z,19.1
2022-08-18T13:35:09.126Z,18.9
2022-08-18T13:40:09.668Z,19.8
2022-08-18T13:45:25.226Z,18.5
2022-08-18T13:50:17.715Z,19.8
2022-08-18T13:55:22.237Z,19.4
2022-08-18T14:00:30.578Z,19.9
2022-08-18T14:05:36.482Z,19.3
2022-08-18T14:10:34.875Z,19.5
2022-08-18T14:15:39.522Z,18.9
2022-08-18T14:20:48.385Z,18.9
2022-08-18T14:25:47.491Z,18.8
2022-08-18T14:30:54.877Z,18.7
2022-08-18T14:36:09.561Z,19.1
2022-08-18T14:41:00.134Z,19
2022-08-18T14:46:04.618Z,19.3
2022-08-18T14:51:09.583Z,19
2022-08-18T14:56:12.699Z,19.5
2022-08-18T15:01:17.297Z,19.5
2022-08-18T15:06:23.167Z,19.8
2022-08-18T15:11:25.345Z,19.6
2022-08-18T15:16:31.583Z,19.6
2022-08-18T15:21:35.268Z,19.3
2022-08-18T15:26:37.972Z,19.5
2022-08-18T15:31:50.387Z,19.7
2022-08-18T15:36:47.035Z,19.8
2022-08-18T15:46:55.106Z,19.1
2022-08-18T15:51:59.664Z,19
2022-08-18T15:57:05.046Z,19.1
2022-08-18T16:02:11.736Z,19.3
2022-08-18T16:07:12.304Z,19.3
2022-08-18T16:12:16.817Z,19.3
2022-08-18T16:17:29.982Z,19.3
2022-08-18T16:22:24.911Z,19.2
2022-08-18T16:27:29.439Z,19.2
2022-08-18T16:32:32.999Z,18.8
2022-08-18T16:37:37.507Z,18.9
2022-08-18T16:42:41.074Z,18.9
2022-08-18T16:47:45.672Z,19.1
2022-08-18T16:52:50.195Z,19.1
2022-08-18T16:57:55.737Z,19
2022-08-18T17:02:58.297Z,19.2
2022-08-18T17:08:02.818Z,18.9
2022-08-18T17:13:07.207Z,19.3
2022-08-18T17:18:10.872Z,18.9
2022-08-18T17:23:15.434Z,19.1
2022-08-18T17:28:19.962Z,18.8
2022-08-18T17:33:23.487Z,18.7
2022-08-18T17:38:28.039Z,18.5
2022-08-18T17:43:32.622Z,18
2022-08-18T17:48:36.128Z,18
2022-08-18T17:53:40.657Z,17.9
2022-08-18T17:58:45.212Z,18.1
2022-08-18T18:03:48.727Z,17.9
2022-08-18T18:08:53.367Z,18
2022-08-18T18:13:57.821Z,18
2022-08-18T18:19:02.040Z,18.1
2022-08-18T18:24:05.922Z,18.1
2022-08-18T18:29:12.467Z,18.2
2022-08-18T18:34:23.245Z,18.2
2022-08-18T18:39:18.558Z,18.1
2022-08-18T18:44:23.032Z,18
2022-08-18T18:49:27.597Z,18
2022-08-18T18:54:31.119Z,18
2022-08-18T18:59:35.777Z,18.1
2022-08-18T19:04:40.189Z,17.9
2022-08-18T19:09:46.090Z,17.9
2022-08-18T19:14:55.629Z,17.9
2022-08-18T19:19:52.832Z,17.9
2022-08-18T19:24:56.460Z,17.8
2022-08-18T19:30:00.877Z,17.7
2022-08-18T19:35:12.008Z,17.7
2022-08-18T19:40:10.073Z,17.8
2022-08-18T19:45:16.765Z,17.7
2022-08-18T19:50:18.062Z,17.6
2022-08-18T19:55:22.594Z,17.5
2022-08-18T20:00:26.105Z,17.5
2022-08-18T20:05:30.639Z,17.5
2022-08-18T20:10:35.204Z,17.3
2022-08-18T20:15:38.740Z,17.3
2022-08-18T20:20:43.265Z,17.2
2022-08-18T20:25:47.809Z,17.2
2022-08-18T20:30:51.354Z,17.3
2022-08-18T20:35:55.896Z,17.2
2022-08-18T20:41:00.416Z,17.2
2022-08-18T20:46:04.953Z,17.1
2022-08-18T20:51:08.541Z,17
2022-08-18T20:56:31.305Z,17.1
2022-08-18T21:01:16.664Z,17
2022-08-18T21:06:21.131Z,16.9
2022-08-18T21:11:32.138Z,16.9
2022-08-18T21:16:38.495Z,16.9
2022-08-18T21:21:33.755Z,16.9
2022-08-18T21:26:38.315Z,16.8
2022-08-18T21:31:45.007Z,16.7
2022-08-18T21:36:46.384Z,16.7
2022-08-18T21:41:50.916Z,16.7
2022-08-18T21:46:54.445Z,16.8
2022-08-18T21:51:59.001Z,16.8
2022-08-18T21:57:03.529Z,16.9
2022-08-18T22:02:07.074Z,16.8
2022-08-18T22:07:34.434Z,16.9
2022-08-18T22:12:16.157Z,16.7
2022-08-18T22:17:19.715Z,16.7
2022-08-18T22:22:24.259Z,16.7
2022-08-18T22:27:28.801Z,16.8
2022-08-18T22:32:33.319Z,16.8
2022-08-18T22:37:36.872Z,16.7
2022-08-18T22:42:41.400Z,16.8
2022-08-18T22:47:45.933Z,16.9
2022-08-18T22:52:49.571Z,16.8
2022-08-18T22:57:56.981Z,17
2022-08-18T23:02:58.589Z,17
2022-08-18T23:08:02.090Z,16.9
2022-08-18T23:13:06.649Z,16.9
2022-08-18T23:18:11.139Z,16.8
2022-08-18T23:23:14.723Z,16.7
2022-08-18T23:28:19.251Z,16.7
2022-08-18T23:33:23.802Z,16.7
2022-08-18T23:38:31.807Z,16.8
2022-08-18T23:43:31.842Z,16.8
2022-08-18T23:48:36.385Z,16.8
2022-08-18T23:53:40.915Z,16.8
2022-08-18T23:58:44.480Z,16.9
